sensor_id;sensor_type;location;lat;lon;timestamp;temperature;humidity
22153;DHT22;11242;50.536;12.688;2023-04-06T00:00:49;1.30;99.90
22153;DHT22;11242;50.536;12.688;2023-04-06T00:03:15;1.50;99.90
22153;DHT22;11242;50.536;12.688;2023-04-06T00:05:41;1.50;99.90
22153;DHT22;11242;50.536;12.688;2023-04-06T00:08:06;1.60;99.90
22153;DHT22;11242;50.536;12.688;2023-04-06T00:10:32;1.60;99.90
22153;DHT22;11242;50.536;12.688;2023-04-06T00:12:59;1.70;99.90
22153;DHT22;11242;50.536;12.688;2023-04-06T00:15:24;1.60;99.90
22153;DHT22;11242;50.536;12.688;2023-04-06T00:17:50;1.70;99.90
22153;DHT22;11242;50.536;12.688;2023-04-06T00:20:16;1.70;99.90
22153;DHT22;11242;50.536;12.688;2023-04-06T00:22:42;1.70;99.90
22153;DHT22;11242;50.536;12.688;2023-04-06T00:25:08;1.60;99.90
22153;DHT22;11242;50.536;12.688;2023-04-06T00:27:35;1.60;99.90
22153;DHT22;11242;50.536;12.688;2023-04-06T00:30:01;1.70;99.90
22153;DHT22;11242;50.536;12.688;2023-04-06T00:32:27;1.80;99.90
22153;DHT22;11242;50.536;12.688;2023-04-06T00:34:53;1.80;99.90
22153;DHT22;11242;50.536;12.688;2023-04-06T00:37:18;1.80;99.90
22153;DHT22;11242;50.536;12.688;2023-04-06T00:39:44;1.80;99.90
22153;DHT22;11242;50.536;12.688;2023-04-06T00:42:11;1.80;99.90
22153;DHT22;11242;50.536;12.688;2023-04-06T00:44:43;1.80;99.90
22153;DHT22;11242;50.536;12.688;2023-04-06T00:47:09;1.80;99.90
22153;DHT22;11242;50.536;12.688;2023-04-06T00:49:34;1.80;99.90
22153;DHT22;11242;50.536;12.688;2023-04-06T00:52:00;1.80;99.90
22153;DHT22;11242;50.536;12.688;2023-04-06T00:54:27;1.90;99.90
22153;DHT22;11242;50.536;12.688;2023-04-06T00:56:52;1.80;99.90
22153;DHT22;11242;50.536;12.688;2023-04-06T00:59:18;1.80;99.90
22153;DHT22;11242;50.536;12.688;2023-04-06T01:01:45;1.80;99.90
22153;DHT22;11242;50.536;12.688;2023-04-06T01:04:26;1.80;99.90
22153;DHT22;11242;50.536;12.688;2023-04-06T01:06:53;1.80;99.90
22153;DHT22;11242;50.536;12.688;2023-04-06T01:09:24;1.90;99.90
22153;DHT22;11242;50.536;12.688;2023-04-06T01:11:51;1.80;99.90
22153;DHT22;11242;50.536;12.688;2023-04-06T01:14:21;1.90;99.90
22153;DHT22;11242;50.536;12.688;2023-04-06T01:16:58;1.80;99.90
22153;DHT22;11242;50.536;12.688;2023-04-06T01:19:28;1.90;99.90
22153;DHT22;11242;50.536;12.688;2023-04-06T01:21:55;1.80;99.90
22153;DHT22;11242;50.536;12.688;2023-04-06T01:24:29;1.80;99.90
22153;DHT22;11242;50.536;12.688;2023-04-06T01:27:02;1.90;99.90
22153;DHT22;11242;50.536;12.688;2023-04-06T01:29:38;1.80;99.90
22153;DHT22;11242;50.536;12.688;2023-04-06T01:32:08;1.80;99.90
22153;DHT22;11242;50.536;12.688;2023-04-06T01:34:39;1.80;99.90
22153;DHT22;11242;50.536;12.688;2023-04-06T01:37:05;1.80;99.90
22153;DHT22;11242;50.536;12.688;2023-04-06T01:39:31;1.80;99.90
22153;DHT22;11242;50.536;12.688;2023-04-06T01:41:58;1.70;99.90
22153;DHT22;11242;50.536;12.688;2023-04-06T01:44:25;1.80;99.90
22153;DHT22;11242;50.536;12.688;2023-04-06T01:47:02;1.70;99.90
22153;DHT22;11242;50.536;12.688;2023-04-06T01:49:27;1.70;99.90
22153;DHT22;11242;50.536;12.688;2023-04-06T01:51:55;1.70;99.90
22153;DHT22;11242;50.536;12.688;2023-04-06T01:54:21;1.70;99.90
22153;DHT22;11242;50.536;12.688;2023-04-06T01:57:03;1.70;99.90
22153;DHT22;11242;50.536;12.688;2023-04-06T01:59:33;1.70;99.90
22153;DHT22;11242;50.536;12.688;2023-04-06T02:02:02;1.80;99.90
22153;DHT22;11242;50.536;12.688;2023-04-06T02:04:29;1.70;99.90
22153;DHT22;11242;50.536;12.688;2023-04-06T02:07:06;1.70;99.90
22153;DHT22;11242;50.536;12.688;2023-04-06T02:09:32;1.70;99.90
22153;DHT22;11242;50.536;12.688;2023-04-06T02:11:58;1.60;99.90
22153;DHT22;11242;50.536;12.688;2023-04-06T02:14:25;1.70;99.90
22153;DHT22;11242;50.536;12.688;2023-04-06T02:16:53;1.60;99.90
22153;DHT22;11242;50.536;12.688;2023-04-06T02:19:19;1.70;99.90
22153;DHT22;11242;50.536;12.688;2023-04-06T02:21:44;1.70;99.90
22153;DHT22;11242;50.536;12.688;2023-04-06T02:24:10;1.80;99.90
22153;DHT22;11242;50.536;12.688;2023-04-06T02:26:36;1.70;99.90
22153;DHT22;11242;50.536;12.688;2023-04-06T02:29:01;1.70;99.90
22153;DHT22;11242;50.536;12.688;2023-04-06T02:31:27;1.70;99.90
22153;DHT22;11242;50.536;12.688;2023-04-06T02:33:53;1.70;99.90
22153;DHT22;11242;50.536;12.688;2023-04-06T02:36:19;1.70;99.90
22153;DHT22;11242;50.536;12.688;2023-04-06T02:38:45;1.70;99.90
22153;DHT22;11242;50.536;12.688;2023-04-06T02:41:11;1.70;99.90
22153;DHT22;11242;50.536;12.688;2023-04-06T02:43:37;1.60;99.90
22153;DHT22;11242;50.536;12.688;2023-04-06T02:46:13;1.60;99.90
22153;DHT22;11242;50.536;12.688;2023-04-06T02:48:39;1.60;99.90
22153;DHT22;11242;50.536;12.688;2023-04-06T02:51:04;1.60;99.90
22153;DHT22;11242;50.536;12.688;2023-04-06T02:53:30;1.50;99.90
22153;DHT22;11242;50.536;12.688;2023-04-06T02:55:56;1.50;99.90
22153;DHT22;11242;50.536;12.688;2023-04-06T02:58:25;1.50;99.90
22153;DHT22;11242;50.536;12.688;2023-04-06T03:00:54;1.50;99.90
22153;DHT22;11242;50.536;12.688;2023-04-06T03:03:19;1.40;99.90
22153;DHT22;11242;50.536;12.688;2023-04-06T03:05:46;1.40;99.90
22153;DHT22;11242;50.536;12.688;2023-04-06T03:08:13;1.30;99.90
22153;DHT22;11242;50.536;12.688;2023-04-06T03:10:42;1.30;99.90
22153;DHT22;11242;50.536;12.688;2023-04-06T03:13:08;1.30;99.90
22153;DHT22;11242;50.536;12.688;2023-04-06T03:15:55;1.30;99.90
22153;DHT22;11242;50.536;12.688;2023-04-06T03:18:23;1.20;99.90
22153;DHT22;11242;50.536;12.688;2023-04-06T03:20:49;1.20;99.90
22153;DHT22;11242;50.536;12.688;2023-04-06T03:23:17;1.20;99.90
22153;DHT22;11242;50.536;12.688;2023-04-06T03:25:44;1.30;99.90
22153;DHT22;11242;50.536;12.688;2023-04-06T03:28:14;1.30;99.90
22153;DHT22;11242;50.536;12.688;2023-04-06T03:30:49;1.30;99.90
22153;DHT22;11242;50.536;12.688;2023-04-06T03:33:18;1.30;99.90
22153;DHT22;11242;50.536;12.688;2023-04-06T03:35:51;1.20;99.90
22153;DHT22;11242;50.536;12.688;2023-04-06T03:38:17;1.10;99.90
22153;DHT22;11242;50.536;12.688;2023-04-06T03:40:43;1.10;99.90
22153;DHT22;11242;50.536;12.688;2023-04-06T03:43:08;1.10;99.90
22153;DHT22;11242;50.536;12.688;2023-04-06T03:45:36;1.10;99.90
22153;DHT22;11242;50.536;12.688;2023-04-06T03:48:02;1.10;99.90
22153;DHT22;11242;50.536;12.688;2023-04-06T03:50:29;1.10;99.90
22153;DHT22;11242;50.536;12.688;2023-04-06T03:52:55;1.20;99.90
22153;DHT22;11242;50.536;12.688;2023-04-06T03:55:20;1.10;99.90
22153;DHT22;11242;50.536;12.688;2023-04-06T03:57:46;1.10;99.90
22153;DHT22;11242;50.536;12.688;2023-04-06T04:00:12;1.10;99.90
22153;DHT22;11242;50.536;12.688;2023-04-06T04:02:41;1.00;99.90
22153;DHT22;11242;50.536;12.688;2023-04-06T04:05:06;1.00;99.90
22153;DHT22;11242;50.536;12.688;2023-04-06T04:07:32;1.00;99.90
22153;DHT22;11242;50.536;12.688;2023-04-06T04:09:58;1.00;99.90
22153;DHT22;11242;50.536;12.688;2023-04-06T04:12:24;1.00;99.90
22153;DHT22;11242;50.536;12.688;2023-04-06T04:14:50;1.00;99.90
22153;DHT22;11242;50.536;12.688;2023-04-06T04:17:15;1.10;99.90
22153;DHT22;11242;50.536;12.688;2023-04-06T04:19:41;1.10;99.90
22153;DHT22;11242;50.536;12.688;2023-04-06T04:22:06;1.00;99.90
22153;DHT22;11242;50.536;12.688;2023-04-06T04:24:36;1.00;99.90
22153;DHT22;11242;50.536;12.688;2023-04-06T04:27:01;1.00;99.90
22153;DHT22;11242;50.536;12.688;2023-04-06T04:29:29;1.00;99.90
22153;DHT22;11242;50.536;12.688;2023-04-06T04:31:59;0.90;99.90
22153;DHT22;11242;50.536;12.688;2023-04-06T04:34:25;0.90;99.90
22153;DHT22;11242;50.536;12.688;2023-04-06T04:36:51;0.90;99.90
22153;DHT22;11242;50.536;12.688;2023-04-06T04:39:25;0.90;99.90
22153;DHT22;11242;50.536;12.688;2023-04-06T04:41:58;0.90;99.90
22153;DHT22;11242;50.536;12.688;2023-04-06T04:44:24;0.90;99.90
22153;DHT22;11242;50.536;12.688;2023-04-06T04:46:50;0.90;99.90
22153;DHT22;11242;50.536;12.688;2023-04-06T04:49:18;1.00;99.90
22153;DHT22;11242;50.536;12.688;2023-04-06T04:51:44;1.00;99.90
22153;DHT22;11242;50.536;12.688;2023-04-06T04:54:20;1.00;99.90
22153;DHT22;11242;50.536;12.688;2023-04-06T04:56:45;1.00;99.90
22153;DHT22;11242;50.536;12.688;2023-04-06T04:59:35;1.00;99.90
22153;DHT22;11242;50.536;12.688;2023-04-06T05:02:09;1.00;99.90
22153;DHT22;11242;50.536;12.688;2023-04-06T05:04:44;1.00;99.90
22153;DHT22;11242;50.536;12.688;2023-04-06T05:07:16;1.00;99.90
22153;DHT22;11242;50.536;12.688;2023-04-06T05:09:44;1.00;99.90
22153;DHT22;11242;50.536;12.688;2023-04-06T05:12:10;1.00;99.90
22153;DHT22;11242;50.536;12.688;2023-04-06T05:14:46;1.10;99.90
22153;DHT22;11242;50.536;12.688;2023-04-06T05:17:14;1.10;99.90
22153;DHT22;11242;50.536;12.688;2023-04-06T05:19:40;1.20;99.90
22153;DHT22;11242;50.536;12.688;2023-04-06T05:22:06;1.20;99.90
22153;DHT22;11242;50.536;12.688;2023-04-06T05:24:34;1.20;99.90
22153;DHT22;11242;50.536;12.688;2023-04-06T05:27:02;1.30;99.90
22153;DHT22;11242;50.536;12.688;2023-04-06T05:29:29;1.40;99.90
22153;DHT22;11242;50.536;12.688;2023-04-06T05:31:54;1.40;99.90
22153;DHT22;11242;50.536;12.688;2023-04-06T05:34:20;1.50;99.90
22153;DHT22;11242;50.536;12.688;2023-04-06T05:36:47;1.60;99.90
22153;DHT22;11242;50.536;12.688;2023-04-06T05:39:22;1.60;99.90
22153;DHT22;11242;50.536;12.688;2023-04-06T05:41:50;1.70;99.90
22153;DHT22;11242;50.536;12.688;2023-04-06T05:44:23;1.80;99.90
22153;DHT22;11242;50.536;12.688;2023-04-06T05:46:58;1.90;99.90
22153;DHT22;11242;50.536;12.688;2023-04-06T05:49:24;2.00;99.90
22153;DHT22;11242;50.536;12.688;2023-04-06T05:51:49;2.20;99.90
22153;DHT22;11242;50.536;12.688;2023-04-06T05:54:15;2.40;99.90
22153;DHT22;11242;50.536;12.688;2023-04-06T05:56:41;2.60;99.90
22153;DHT22;11242;50.536;12.688;2023-04-06T05:59:10;2.80;99.90
22153;DHT22;11242;50.536;12.688;2023-04-06T06:01:35;3.00;99.90
22153;DHT22;11242;50.536;12.688;2023-04-06T06:04:01;3.10;99.90
22153;DHT22;11242;50.536;12.688;2023-04-06T06:06:30;3.30;99.90
22153;DHT22;11242;50.536;12.688;2023-04-06T06:09:09;3.70;99.90
22153;DHT22;11242;50.536;12.688;2023-04-06T06:11:40;4.30;99.90
22153;DHT22;11242;50.536;12.688;2023-04-06T06:14:07;4.80;99.90
22153;DHT22;11242;50.536;12.688;2023-04-06T06:16:37;5.10;99.90
22153;DHT22;11242;50.536;12.688;2023-04-06T06:19:03;5.40;99.90
22153;DHT22;11242;50.536;12.688;2023-04-06T06:21:28;5.70;99.90
22153;DHT22;11242;50.536;12.688;2023-04-06T06:23:54;5.70;99.80
22153;DHT22;11242;50.536;12.688;2023-04-06T06:26:20;5.50;98.30
22153;DHT22;11242;50.536;12.688;2023-04-06T06:28:48;5.70;97.70
22153;DHT22;11242;50.536;12.688;2023-04-06T06:31:14;5.60;96.50
22153;DHT22;11242;50.536;12.688;2023-04-06T06:33:41;5.70;97.00
22153;DHT22;11242;50.536;12.688;2023-04-06T06:36:07;5.90;95.40
22153;DHT22;11242;50.536;12.688;2023-04-06T06:38:34;6.00;95.10
22153;DHT22;11242;50.536;12.688;2023-04-06T06:41:00;6.10;94.60
22153;DHT22;11242;50.536;12.688;2023-04-06T06:43:29;6.30;93.60
22153;DHT22;11242;50.536;12.688;2023-04-06T06:45:59;6.60;92.30
22153;DHT22;11242;50.536;12.688;2023-04-06T06:48:24;6.60;88.60
22153;DHT22;11242;50.536;12.688;2023-04-06T06:50:50;6.30;88.80
22153;DHT22;11242;50.536;12.688;2023-04-06T06:53:16;6.40;88.00
22153;DHT22;11242;50.536;12.688;2023-04-06T06:55:41;6.40;87.60
22153;DHT22;11242;50.536;12.688;2023-04-06T06:58:09;6.60;87.70
22153;DHT22;11242;50.536;12.688;2023-04-06T07:00:35;6.60;89.40
22153;DHT22;11242;50.536;12.688;2023-04-06T07:03:00;6.70;86.70
22153;DHT22;11242;50.536;12.688;2023-04-06T07:05:26;6.90;84.60
22153;DHT22;11242;50.536;12.688;2023-04-06T07:07:52;6.90;81.50
22153;DHT22;11242;50.536;12.688;2023-04-06T07:10:18;7.10;80.20
22153;DHT22;11242;50.536;12.688;2023-04-06T07:12:43;7.00;77.60
22153;DHT22;11242;50.536;12.688;2023-04-06T07:15:09;7.10;73.70
22153;DHT22;11242;50.536;12.688;2023-04-06T07:17:35;7.10;69.90
22153;DHT22;11242;50.536;12.688;2023-04-06T07:20:00;7.00;71.40
22153;DHT22;11242;50.536;12.688;2023-04-06T07:22:26;7.20;70.30
22153;DHT22;11242;50.536;12.688;2023-04-06T07:24:52;7.20;68.30
22153;DHT22;11242;50.536;12.688;2023-04-06T07:27:17;7.50;69.90
22153;DHT22;11242;50.536;12.688;2023-04-06T07:29:44;7.80;69.30
22153;DHT22;11242;50.536;12.688;2023-04-06T07:32:10;8.10;71.30
22153;DHT22;11242;50.536;12.688;2023-04-06T07:34:36;8.40;70.00
22153;DHT22;11242;50.536;12.688;2023-04-06T07:37:01;8.40;66.80
22153;DHT22;11242;50.536;12.688;2023-04-06T07:39:28;8.50;66.60
22153;DHT22;11242;50.536;12.688;2023-04-06T07:41:55;8.60;64.90
22153;DHT22;11242;50.536;12.688;2023-04-06T07:44:21;8.80;63.70
22153;DHT22;11242;50.536;12.688;2023-04-06T07:46:47;8.90;64.20
22153;DHT22;11242;50.536;12.688;2023-04-06T07:49:14;9.10;60.50
22153;DHT22;11242;50.536;12.688;2023-04-06T07:51:39;9.30;57.90
22153;DHT22;11242;50.536;12.688;2023-04-06T07:54:05;9.20;58.10
22153;DHT22;11242;50.536;12.688;2023-04-06T07:56:31;8.90;59.80
22153;DHT22;11242;50.536;12.688;2023-04-06T07:58:57;8.80;60.90
22153;DHT22;11242;50.536;12.688;2023-04-06T08:01:23;8.60;60.10
22153;DHT22;11242;50.536;12.688;2023-04-06T08:03:49;8.60;60.00
22153;DHT22;11242;50.536;12.688;2023-04-06T08:06:15;8.70;59.10
22153;DHT22;11242;50.536;12.688;2023-04-06T08:08:42;8.90;59.90
22153;DHT22;11242;50.536;12.688;2023-04-06T08:11:08;10.00;56.30
22153;DHT22;11242;50.536;12.688;2023-04-06T08:13:34;11.80;53.40
22153;DHT22;11242;50.536;12.688;2023-04-06T08:16:00;14.40;47.40
22153;DHT22;11242;50.536;12.688;2023-04-06T08:18:26;15.60;39.40
22153;DHT22;11242;50.536;12.688;2023-04-06T08:20:52;17.10;36.30
22153;DHT22;11242;50.536;12.688;2023-04-06T08:23:17;17.50;35.30
22153;DHT22;11242;50.536;12.688;2023-04-06T08:25:43;17.30;35.80
22153;DHT22;11242;50.536;12.688;2023-04-06T08:28:09;17.70;34.90
22153;DHT22;11242;50.536;12.688;2023-04-06T08:30:35;17.30;33.40
22153;DHT22;11242;50.536;12.688;2023-04-06T08:33:01;17.60;34.20
22153;DHT22;11242;50.536;12.688;2023-04-06T08:35:27;17.90;34.40
22153;DHT22;11242;50.536;12.688;2023-04-06T08:37:53;18.80;33.40
22153;DHT22;11242;50.536;12.688;2023-04-06T08:40:18;19.00;33.70
22153;DHT22;11242;50.536;12.688;2023-04-06T08:42:50;19.00;33.60
22153;DHT22;11242;50.536;12.688;2023-04-06T08:45:17;18.40;32.30
22153;DHT22;11242;50.536;12.688;2023-04-06T08:47:49;18.50;33.60
22153;DHT22;11242;50.536;12.688;2023-04-06T08:50:16;18.30;30.00
22153;DHT22;11242;50.536;12.688;2023-04-06T08:52:44;16.50;32.40
22153;DHT22;11242;50.536;12.688;2023-04-06T08:55:11;15.60;33.00
22153;DHT22;11242;50.536;12.688;2023-04-06T08:57:37;15.30;33.80
22153;DHT22;11242;50.536;12.688;2023-04-06T09:00:04;17.30;33.00
22153;DHT22;11242;50.536;12.688;2023-04-06T09:02:30;18.60;32.40
22153;DHT22;11242;50.536;12.688;2023-04-06T09:04:56;19.90;29.70
22153;DHT22;11242;50.536;12.688;2023-04-06T09:07:22;18.60;29.10
22153;DHT22;11242;50.536;12.688;2023-04-06T09:09:49;16.00;31.40
22153;DHT22;11242;50.536;12.688;2023-04-06T09:14:49;15.20;33.90
22153;DHT22;11242;50.536;12.688;2023-04-06T09:17:41;15.10;33.70
22153;DHT22;11242;50.536;12.688;2023-04-06T09:20:09;13.70;35.70
22153;DHT22;11242;50.536;12.688;2023-04-06T09:22:41;11.90;39.20
22153;DHT22;11242;50.536;12.688;2023-04-06T09:25:08;10.90;40.20
22153;DHT22;11242;50.536;12.688;2023-04-06T09:27:36;10.50;41.40
22153;DHT22;11242;50.536;12.688;2023-04-06T09:32:30;9.80;44.70
22153;DHT22;11242;50.536;12.688;2023-04-06T09:35:06;9.50;44.20
22153;DHT22;11242;50.536;12.688;2023-04-06T09:37:32;9.50;45.00
22153;DHT22;11242;50.536;12.688;2023-04-06T09:40:07;9.60;44.90
22153;DHT22;11242;50.536;12.688;2023-04-06T09:42:34;9.20;44.10
22153;DHT22;11242;50.536;12.688;2023-04-06T09:45:01;8.90;44.40
22153;DHT22;11242;50.536;12.688;2023-04-06T09:47:26;8.40;44.80
22153;DHT22;11242;50.536;12.688;2023-04-06T09:49:56;8.10;45.80
22153;DHT22;11242;50.536;12.688;2023-04-06T09:52:27;8.10;46.20
22153;DHT22;11242;50.536;12.688;2023-04-06T09:55:02;8.40;46.10
22153;DHT22;11242;50.536;12.688;2023-04-06T09:57:50;8.70;46.20
22153;DHT22;11242;50.536;12.688;2023-04-06T10:00:21;8.60;46.00
22153;DHT22;11242;50.536;12.688;2023-04-06T10:03:00;8.40;47.20
22153;DHT22;11242;50.536;12.688;2023-04-06T10:05:33;8.50;46.20
22153;DHT22;11242;50.536;12.688;2023-04-06T10:08:08;8.80;43.80
22153;DHT22;11242;50.536;12.688;2023-04-06T10:10:35;9.20;47.30
22153;DHT22;11242;50.536;12.688;2023-04-06T10:13:00;9.30;45.20
22153;DHT22;11242;50.536;12.688;2023-04-06T10:15:28;9.30;43.70
22153;DHT22;11242;50.536;12.688;2023-04-06T10:17:55;9.10;44.10
22153;DHT22;11242;50.536;12.688;2023-04-06T10:20:43;8.80;47.10
22153;DHT22;11242;50.536;12.688;2023-04-06T10:23:35;8.20;48.10
22153;DHT22;11242;50.536;12.688;2023-04-06T10:26:00;8.10;49.70
22153;DHT22;11242;50.536;12.688;2023-04-06T10:28:31;8.10;49.00
22153;DHT22;11242;50.536;12.688;2023-04-06T10:31:02;8.20;48.90
22153;DHT22;11242;50.536;12.688;2023-04-06T10:33:29;8.70;49.90
22153;DHT22;11242;50.536;12.688;2023-04-06T10:35:55;8.80;48.20
22153;DHT22;11242;50.536;12.688;2023-04-06T10:38:21;9.10;46.50
22153;DHT22;11242;50.536;12.688;2023-04-06T10:40:48;9.30;46.90
22153;DHT22;11242;50.536;12.688;2023-04-06T10:43:23;9.70;46.70
22153;DHT22;11242;50.536;12.688;2023-04-06T10:45:55;9.80;44.70
22153;DHT22;11242;50.536;12.688;2023-04-06T10:48:21;9.90;43.60
22153;DHT22;11242;50.536;12.688;2023-04-06T10:50:49;9.80;43.10
22153;DHT22;11242;50.536;12.688;2023-04-06T10:53:23;9.50;44.30
22153;DHT22;11242;50.536;12.688;2023-04-06T10:55:50;9.20;46.80
22153;DHT22;11242;50.536;12.688;2023-04-06T10:58:16;9.10;47.50
22153;DHT22;11242;50.536;12.688;2023-04-06T11:00:48;9.10;49.60
22153;DHT22;11242;50.536;12.688;2023-04-06T11:03:15;9.10;47.20
22153;DHT22;11242;50.536;12.688;2023-04-06T11:05:48;9.20;47.00
22153;DHT22;11242;50.536;12.688;2023-04-06T11:08:32;9.50;47.60
22153;DHT22;11242;50.536;12.688;2023-04-06T11:11:09;9.60;47.30
22153;DHT22;11242;50.536;12.688;2023-04-06T11:13:48;9.50;46.00
22153;DHT22;11242;50.536;12.688;2023-04-06T11:16:18;9.60;49.10
22153;DHT22;11242;50.536;12.688;2023-04-06T11:18:54;9.80;46.70
22153;DHT22;11242;50.536;12.688;2023-04-06T11:21:43;9.90;45.50
22153;DHT22;11242;50.536;12.688;2023-04-06T11:24:23;9.40;44.90
22153;DHT22;11242;50.536;12.688;2023-04-06T11:26:54;9.50;44.80
22153;DHT22;11242;50.536;12.688;2023-04-06T11:29:22;9.60;46.10
22153;DHT22;11242;50.536;12.688;2023-04-06T11:31:50;9.60;44.60
22153;DHT22;11242;50.536;12.688;2023-04-06T11:34:20;9.50;44.10
22153;DHT22;11242;50.536;12.688;2023-04-06T11:36:47;9.60;43.90
22153;DHT22;11242;50.536;12.688;2023-04-06T11:39:17;9.60;45.30
22153;DHT22;11242;50.536;12.688;2023-04-06T11:41:48;9.00;44.10
22153;DHT22;11242;50.536;12.688;2023-04-06T11:44:13;8.80;46.00
22153;DHT22;11242;50.536;12.688;2023-04-06T11:46:39;9.00;44.70
22153;DHT22;11242;50.536;12.688;2023-04-06T11:49:05;9.20;44.30
22153;DHT22;11242;50.536;12.688;2023-04-06T11:51:35;9.00;44.90
22153;DHT22;11242;50.536;12.688;2023-04-06T11:54:01;9.10;44.70
22153;DHT22;11242;50.536;12.688;2023-04-06T11:56:29;9.40;46.00
22153;DHT22;11242;50.536;12.688;2023-04-06T11:58:57;9.70;45.00
22153;DHT22;11242;50.536;12.688;2023-04-06T12:01:24;9.80;43.80
22153;DHT22;11242;50.536;12.688;2023-04-06T12:03:50;9.90;44.10
22153;DHT22;11242;50.536;12.688;2023-04-06T12:06:17;10.00;44.90
22153;DHT22;11242;50.536;12.688;2023-04-06T12:08:42;10.00;46.70
22153;DHT22;11242;50.536;12.688;2023-04-06T12:11:08;10.00;46.50
22153;DHT22;11242;50.536;12.688;2023-04-06T12:13:33;10.00;45.60
22153;DHT22;11242;50.536;12.688;2023-04-06T12:15:59;10.10;44.00
22153;DHT22;11242;50.536;12.688;2023-04-06T12:18:24;10.10;45.30
22153;DHT22;11242;50.536;12.688;2023-04-06T12:20:51;10.10;44.20
22153;DHT22;11242;50.536;12.688;2023-04-06T12:23:17;9.90;44.60
22153;DHT22;11242;50.536;12.688;2023-04-06T12:25:42;9.60;44.80
22153;DHT22;11242;50.536;12.688;2023-04-06T12:28:08;9.40;44.20
22153;DHT22;11242;50.536;12.688;2023-04-06T12:30:37;9.20;44.10
22153;DHT22;11242;50.536;12.688;2023-04-06T12:33:03;9.10;44.30
22153;DHT22;11242;50.536;12.688;2023-04-06T12:35:32;9.00;44.40
22153;DHT22;11242;50.536;12.688;2023-04-06T12:37:58;8.90;45.30
22153;DHT22;11242;50.536;12.688;2023-04-06T12:40:23;9.10;45.10
22153;DHT22;11242;50.536;12.688;2023-04-06T12:42:49;9.00;45.00
22153;DHT22;11242;50.536;12.688;2023-04-06T12:45:15;8.70;45.40
22153;DHT22;11242;50.536;12.688;2023-04-06T12:47:40;8.60;45.40
22153;DHT22;11242;50.536;12.688;2023-04-06T12:50:06;8.70;45.80
22153;DHT22;11242;50.536;12.688;2023-04-06T12:52:32;9.00;45.40
22153;DHT22;11242;50.536;12.688;2023-04-06T12:55:01;9.20;45.90
22153;DHT22;11242;50.536;12.688;2023-04-06T12:57:27;9.40;46.00
22153;DHT22;11242;50.536;12.688;2023-04-06T12:59:52;9.50;45.70
22153;DHT22;11242;50.536;12.688;2023-04-06T13:02:18;9.80;46.20
22153;DHT22;11242;50.536;12.688;2023-04-06T13:04:45;9.80;45.20
22153;DHT22;11242;50.536;12.688;2023-04-06T13:07:11;9.60;44.60
22153;DHT22;11242;50.536;12.688;2023-04-06T13:09:36;9.50;44.50
22153;DHT22;11242;50.536;12.688;2023-04-06T13:12:02;9.70;44.20
22153;DHT22;11242;50.536;12.688;2023-04-06T13:14:28;9.60;44.10
22153;DHT22;11242;50.536;12.688;2023-04-06T13:16:54;9.70;44.50
22153;DHT22;11242;50.536;12.688;2023-04-06T13:19:19;9.70;45.40
22153;DHT22;11242;50.536;12.688;2023-04-06T13:21:45;10.00;46.30
22153;DHT22;11242;50.536;12.688;2023-04-06T13:24:11;10.10;44.90
22153;DHT22;11242;50.536;12.688;2023-04-06T13:26:36;10.20;43.60
22153;DHT22;11242;50.536;12.688;2023-04-06T13:29:02;10.00;43.20
22153;DHT22;11242;50.536;12.688;2023-04-06T13:31:28;9.90;43.80
22153;DHT22;11242;50.536;12.688;2023-04-06T13:33:54;10.10;45.20
22153;DHT22;11242;50.536;12.688;2023-04-06T13:36:19;10.00;44.00
22153;DHT22;11242;50.536;12.688;2023-04-06T13:38:45;10.10;44.50
22153;DHT22;11242;50.536;12.688;2023-04-06T13:41:19;10.10;45.00
22153;DHT22;11242;50.536;12.688;2023-04-06T13:43:46;10.00;45.50
22153;DHT22;11242;50.536;12.688;2023-04-06T13:46:11;9.90;45.80
22153;DHT22;11242;50.536;12.688;2023-04-06T13:48:37;9.90;46.40
22153;DHT22;11242;50.536;12.688;2023-04-06T13:51:12;9.90;46.20
22153;DHT22;11242;50.536;12.688;2023-04-06T13:53:39;9.90;45.90
22153;DHT22;11242;50.536;12.688;2023-04-06T13:56:05;9.70;46.60
22153;DHT22;11242;50.536;12.688;2023-04-06T13:58:32;9.80;47.30
22153;DHT22;11242;50.536;12.688;2023-04-06T14:01:05;9.80;46.40
22153;DHT22;11242;50.536;12.688;2023-04-06T14:03:31;9.80;46.70
22153;DHT22;11242;50.536;12.688;2023-04-06T14:05:57;10.00;47.50
22153;DHT22;11242;50.536;12.688;2023-04-06T14:08:22;9.90;46.20
22153;DHT22;11242;50.536;12.688;2023-04-06T14:10:48;9.80;46.90
22153;DHT22;11242;50.536;12.688;2023-04-06T14:13:14;9.90;47.40
22153;DHT22;11242;50.536;12.688;2023-04-06T14:15:39;10.00;47.60
22153;DHT22;11242;50.536;12.688;2023-04-06T14:18:05;10.20;47.00
22153;DHT22;11242;50.536;12.688;2023-04-06T14:20:32;10.10;46.50
22153;DHT22;11242;50.536;12.688;2023-04-06T14:23:02;10.00;46.10
22153;DHT22;11242;50.536;12.688;2023-04-06T14:25:28;9.90;46.50
22153;DHT22;11242;50.536;12.688;2023-04-06T14:27:53;9.80;47.20
22153;DHT22;11242;50.536;12.688;2023-04-06T14:30:19;9.90;47.20
22153;DHT22;11242;50.536;12.688;2023-04-06T14:32:45;9.90;47.00
22153;DHT22;11242;50.536;12.688;2023-04-06T14:35:10;9.80;47.40
22153;DHT22;11242;50.536;12.688;2023-04-06T14:37:36;9.70;46.80
22153;DHT22;11242;50.536;12.688;2023-04-06T14:40:05;9.70;47.10
22153;DHT22;11242;50.536;12.688;2023-04-06T14:42:31;9.80;47.40
22153;DHT22;11242;50.536;12.688;2023-04-06T14:44:57;9.80;46.70
22153;DHT22;11242;50.536;12.688;2023-04-06T14:47:22;9.80;47.20
22153;DHT22;11242;50.536;12.688;2023-04-06T14:49:50;9.80;47.00
22153;DHT22;11242;50.536;12.688;2023-04-06T14:52:16;9.60;46.10
22153;DHT22;11242;50.536;12.688;2023-04-06T14:54:42;9.60;46.20
22153;DHT22;11242;50.536;12.688;2023-04-06T14:57:07;9.60;46.50
22153;DHT22;11242;50.536;12.688;2023-04-06T14:59:33;9.50;47.20
22153;DHT22;11242;50.536;12.688;2023-04-06T15:01:59;9.50;47.50
22153;DHT22;11242;50.536;12.688;2023-04-06T15:04:28;9.50;46.90
22153;DHT22;11242;50.536;12.688;2023-04-06T15:06:54;9.40;47.00
22153;DHT22;11242;50.536;12.688;2023-04-06T15:09:19;9.30;47.60
22153;DHT22;11242;50.536;12.688;2023-04-06T15:11:45;9.40;47.30
22153;DHT22;11242;50.536;12.688;2023-04-06T15:14:10;9.50;47.90
22153;DHT22;11242;50.536;12.688;2023-04-06T15:16:36;9.50;48.20
22153;DHT22;11242;50.536;12.688;2023-04-06T15:19:02;9.50;47.60
22153;DHT22;11242;50.536;12.688;2023-04-06T15:21:27;9.50;46.70
22153;DHT22;11242;50.536;12.688;2023-04-06T15:23:53;9.40;47.10
22153;DHT22;11242;50.536;12.688;2023-04-06T15:26:20;9.30;47.10
22153;DHT22;11242;50.536;12.688;2023-04-06T15:28:46;9.30;47.20
22153;DHT22;11242;50.536;12.688;2023-04-06T15:31:17;9.20;47.50
22153;DHT22;11242;50.536;12.688;2023-04-06T15:33:43;9.20;47.00
22153;DHT22;11242;50.536;12.688;2023-04-06T15:36:28;9.20;46.70
22153;DHT22;11242;50.536;12.688;2023-04-06T15:38:56;9.00;47.30